createdAt,value
2022-09-16T00:00:47.985Z,14.00
2022-09-16T00:03:41.622Z,13.99
2022-09-16T00:06:21.868Z,13.99
2022-09-16T00:08:55.943Z,13.97
2022-09-16T00:11:28.519Z,13.95
2022-09-16T00:14:00.680Z,13.90
2022-09-16T00:16:33.252Z,13.89
2022-09-16T00:19:05.627Z,13.88
2022-09-16T00:21:37.865Z,13.87
2022-09-16T00:24:13.548Z,13.88
2022-09-16T00:26:46.943Z,13.87
2022-09-16T00:29:18.996Z,13.86
2022-09-16T00:31:52.695Z,13.83
2022-09-16T00:34:25.031Z,13.82
2022-09-16T00:36:57.505Z,13.83
2022-09-16T00:39:29.795Z,13.82
2022-09-16T00:42:02.047Z,13.81
2022-09-16T00:44:54.924Z,13.82
2022-09-16T00:47:32.537Z,13.82
2022-09-16T00:50:11.384Z,13.81
2022-09-16T00:52:44.721Z,13.80
2022-09-16T00:55:22.575Z,13.80
2022-09-16T00:58:00.775Z,13.76
2022-09-16T01:00:33.249Z,13.72
2022-09-16T01:03:05.906Z,13.73
2022-09-16T01:05:39.954Z,13.73
2022-09-16T01:08:12.406Z,13.73
2022-09-16T01:10:45.723Z,13.72
2022-09-16T01:13:18.636Z,13.71
2022-09-16T01:16:02.829Z,13.68
2022-09-16T01:18:41.770Z,13.66
2022-09-16T01:21:36.485Z,13.64
2022-09-16T01:24:31.353Z,13.59
2022-09-16T01:27:28.100Z,13.52
2022-09-16T01:30:19.344Z,13.46
2022-09-16T01:33:08.790Z,13.42
2022-09-16T01:35:53.132Z,13.36
2022-09-16T01:38:36.569Z,13.32
2022-09-16T01:41:16.304Z,13.27
2022-09-16T01:43:57.086Z,13.23
2022-09-16T01:46:39.442Z,13.21
2022-09-16T01:49:21.681Z,13.17
2022-09-16T01:52:00.437Z,13.14
2022-09-16T01:54:40.164Z,13.09
2022-09-16T01:57:17.385Z,13.05
2022-09-16T01:59:55.454Z,13.02
2022-09-16T02:02:33.669Z,12.99
2022-09-16T02:05:11.362Z,12.94
2022-09-16T02:07:49.673Z,12.92
2022-09-16T02:10:27.695Z,12.90
2022-09-16T02:13:04.660Z,12.88
2022-09-16T02:15:39.876Z,12.87
2022-09-16T02:18:14.722Z,12.86
2022-09-16T02:20:49.656Z,12.84
2022-09-16T02:23:25.305Z,12.84
2022-09-16T02:25:59.378Z,12.85
2022-09-16T02:28:35.376Z,12.83
2022-09-16T02:31:09.984Z,12.81
2022-09-16T02:33:46.306Z,12.77
2022-09-16T02:36:23.013Z,12.76
2022-09-16T02:38:59.415Z,12.75
2022-09-16T02:41:31.930Z,12.74
2022-09-16T02:44:05.004Z,12.72
2022-09-16T02:46:44.370Z,12.69
2022-09-16T02:49:28.249Z,12.67
2022-09-16T02:52:07.265Z,12.62
2022-09-16T02:54:47.413Z,12.58
2022-09-16T02:57:20.438Z,12.54
2022-09-16T02:59:53.227Z,12.50
2022-09-16T03:02:25.720Z,12.47
2022-09-16T03:04:57.940Z,12.46
2022-09-16T03:07:30.624Z,12.45
2022-09-16T03:10:04.029Z,12.43
2022-09-16T03:12:49.723Z,12.42
2022-09-16T03:15:39.709Z,12.39
2022-09-16T03:18:34.179Z,12.38
2022-09-16T03:21:17.734Z,12.37
2022-09-16T03:23:57.969Z,12.35
2022-09-16T03:26:36.690Z,12.34
2022-09-16T03:29:19.969Z,12.33
2022-09-16T03:31:58.364Z,12.32
2022-09-16T03:34:35.109Z,12.31
2022-09-16T03:37:11.989Z,12.30
2022-09-16T03:39:49.725Z,12.29
2022-09-16T03:42:23.386Z,12.27
2022-09-16T03:44:55.781Z,12.27
2022-09-16T03:47:28.230Z,12.26
2022-09-16T03:50:00.503Z,12.26
2022-09-16T03:52:32.629Z,12.25
2022-09-16T03:55:05.398Z,12.23
2022-09-16T03:57:37.661Z,12.22
2022-09-16T04:00:16.100Z,12.21
2022-09-16T04:02:48.581Z,12.18
2022-09-16T04:05:21.126Z,12.17
2022-09-16T04:07:53.512Z,12.18
2022-09-16T04:10:25.778Z,12.17
2022-09-16T04:13:00.970Z,12.15
2022-09-16T04:15:35.162Z,12.15
2022-09-16T04:18:07.774Z,12.16
2022-09-16T04:20:40.107Z,12.16
2022-09-16T04:23:12.761Z,12.18
2022-09-16T04:25:44.987Z,12.21
2022-09-16T04:28:17.251Z,12.24
2022-09-16T04:30:49.702Z,12.27
2022-09-16T04:33:24.309Z,12.26
2022-09-16T04:36:02.514Z,12.27
2022-09-16T04:38:35.361Z,12.26
2022-09-16T04:41:10.170Z,12.25
2022-09-16T04:43:42.951Z,12.28
2022-09-16T04:46:15.423Z,12.30
2022-09-16T04:48:50.262Z,12.30
2022-09-16T04:51:23.653Z,12.32
2022-09-16T04:53:56.944Z,12.35
2022-09-16T04:56:31.902Z,12.38
2022-09-16T04:59:06.303Z,12.41
2022-09-16T05:01:40.837Z,12.42
2022-09-16T05:04:13.501Z,12.42
2022-09-16T05:06:45.694Z,12.40
2022-09-16T05:09:18.088Z,12.41
2022-09-16T05:11:50.525Z,12.42
2022-09-16T05:14:23.225Z,12.42
2022-09-16T05:16:55.497Z,12.41
2022-09-16T05:19:27.784Z,12.42
2022-09-16T05:22:00.983Z,12.45
2022-09-16T05:24:34.938Z,12.48
2022-09-16T05:27:07.061Z,12.50
2022-09-16T05:29:39.296Z,12.50
2022-09-16T05:32:12.311Z,12.50
2022-09-16T05:34:44.598Z,12.51
2022-09-16T05:37:16.762Z,12.51
2022-09-16T05:39:52.109Z,12.54
2022-09-16T05:42:24.188Z,12.55
2022-09-16T05:44:56.328Z,12.57
2022-09-16T05:47:29.359Z,12.59
2022-09-16T05:50:01.855Z,12.61
2022-09-16T05:52:33.974Z,12.63
2022-09-16T05:55:07.304Z,12.65
2022-09-16T05:57:39.792Z,12.66
2022-09-16T06:00:14.745Z,12.69
2022-09-16T06:02:49.305Z,12.71
2022-09-16T06:05:22.148Z,12.73
2022-09-16T06:07:57.281Z,12.74
2022-09-16T06:10:32.647Z,12.78
2022-09-16T06:13:04.865Z,12.82
2022-09-16T06:15:37.027Z,12.85
2022-09-16T06:18:09.320Z,12.88
2022-09-16T06:20:41.382Z,12.90
2022-09-16T06:23:14.387Z,12.92
2022-09-16T06:25:47.643Z,12.99
2022-09-16T06:28:19.811Z,13.08
2022-09-16T06:31:02.757Z,13.27
2022-09-16T06:33:38.020Z,14.01
2022-09-16T06:36:12.571Z,14.40
2022-09-16T06:38:45.040Z,14.34
2022-09-16T06:41:19.112Z,14.29
2022-09-16T06:43:52.260Z,14.20
2022-09-16T06:46:26.725Z,14.08
2022-09-16T06:49:05.389Z,14.00
2022-09-16T06:51:38.772Z,13.94
2022-09-16T06:54:12.084Z,13.93
2022-09-16T06:56:45.309Z,13.92
2022-09-16T06:59:17.368Z,13.91
2022-09-16T07:01:50.049Z,13.94
2022-09-16T07:04:22.128Z,13.96
2022-09-16T07:07:10.583Z,13.99
2022-09-16T07:09:43.229Z,14.01
2022-09-16T07:12:19.462Z,14.07
2022-09-16T07:14:53.090Z,14.14
2022-09-16T07:17:27.372Z,14.21
2022-09-16T07:19:59.514Z,14.35
2022-09-16T07:22:35.018Z,14.55
2022-09-16T07:25:08.311Z,14.75
2022-09-16T07:27:40.594Z,14.92
2022-09-16T07:30:13.992Z,15.36
2022-09-16T07:32:49.680Z,15.59
2022-09-16T07:35:21.836Z,15.66
2022-09-16T07:42:47.165Z,15.75
2022-09-16T07:45:19.750Z,15.73
2022-09-16T07:47:56.188Z,15.79
2022-09-16T07:50:29.539Z,15.85
2022-09-16T07:53:02.002Z,15.92
2022-09-16T07:55:35.862Z,15.95
2022-09-16T07:58:08.158Z,15.94
2022-09-16T08:00:42.512Z,15.85
2022-09-16T08:03:14.851Z,15.80
2022-09-16T08:05:47.548Z,15.82
2022-09-16T08:08:20.029Z,15.92
2022-09-16T08:14:43.775Z,16.13
2022-09-16T08:17:16.963Z,16.48
2022-09-16T08:19:49.239Z,16.90
2022-09-16T08:22:25.909Z,17.41
2022-09-16T08:24:58.189Z,17.39
2022-09-16T08:27:30.560Z,17.13
2022-09-16T08:30:02.731Z,16.71
2022-09-16T08:32:35.158Z,16.48
2022-09-16T08:35:08.853Z,16.52
2022-09-16T08:37:41.331Z,17.26
2022-09-16T08:43:05.870Z,17.17
2022-09-16T08:45:45.318Z,17.34
2022-09-16T08:48:29.534Z,17.27
2022-09-16T08:51:03.652Z,17.33
2022-09-16T08:53:41.072Z,17.45
2022-09-16T08:56:19.278Z,17.64
2022-09-16T08:58:55.666Z,17.63
2022-09-16T09:01:36.122Z,17.59
2022-09-16T09:04:08.781Z,17.77
2022-09-16T09:10:30.700Z,17.61
2022-09-16T09:13:14.336Z,17.39
2022-09-16T09:15:55.909Z,17.19
2022-09-16T09:18:40.113Z,16.97
2022-09-16T09:21:24.458Z,16.93
2022-09-16T09:24:21.220Z,16.70
2022-09-16T09:26:58.222Z,16.63
2022-09-16T09:33:46.876Z,19.29
2022-09-16T09:36:42.322Z,20.24
2022-09-16T09:39:33.784Z,20.21
2022-09-16T09:42:16.044Z,20.22
2022-09-16T09:45:01.368Z,19.57
2022-09-16T09:47:38.221Z,18.84
2022-09-16T09:50:20.267Z,18.27
2022-09-16T09:53:01.001Z,17.84
2022-09-16T09:55:36.371Z,17.54
2022-09-16T09:58:23.676Z,17.61
2022-09-16T10:00:57.649Z,17.88
2022-09-16T10:03:31.435Z,17.89
2022-09-16T10:06:03.926Z,17.85
2022-09-16T10:08:42.919Z,17.88
2022-09-16T10:11:22.138Z,17.97
2022-09-16T10:13:58.325Z,17.99
2022-09-16T10:16:33.894Z,17.93
2022-09-16T10:19:09.800Z,17.82
2022-09-16T10:21:47.737Z,17.71
2022-09-16T10:24:34.911Z,17.55
2022-09-16T10:27:22.844Z,17.48
2022-09-16T10:30:13.518Z,17.38
2022-09-16T10:32:54.058Z,17.24
2022-09-16T10:35:29.333Z,17.17
2022-09-16T10:38:06.066Z,17.17
2022-09-16T10:40:39.476Z,17.15
2022-09-16T10:43:17.582Z,17.12
2022-09-16T10:45:52.380Z,17.08
2022-09-16T10:48:29.460Z,17.00
2022-09-16T10:51:04.050Z,17.04
2022-09-16T10:53:39.578Z,17.11
2022-09-16T10:56:21.786Z,17.17
2022-09-16T10:59:07.338Z,17.14
2022-09-16T11:01:49.077Z,17.06
2022-09-16T11:04:49.257Z,16.93
2022-09-16T11:07:33.701Z,16.88
2022-09-16T11:10:19.508Z,16.97
2022-09-16T11:13:06.682Z,17.06
2022-09-16T11:15:53.425Z,17.14
2022-09-16T11:18:42.917Z,17.17
2022-09-16T11:21:35.420Z,17.19
2022-09-16T11:24:22.160Z,17.24
2022-09-16T11:27:07.940Z,17.25
2022-09-16T11:29:59.139Z,17.25
2022-09-16T11:32:47.829Z,17.32
2022-09-16T11:35:34.937Z,17.34
2022-09-16T11:38:17.965Z,17.35
2022-09-16T11:40:54.266Z,17.35
2022-09-16T11:44:01.291Z,17.34
2022-09-16T11:46:47.018Z,17.34
2022-09-16T11:49:35.053Z,17.31
2022-09-16T11:52:23.101Z,17.20
2022-09-16T11:55:26.404Z,17.13
2022-09-16T11:58:04.442Z,17.08
2022-09-16T12:00:39.326Z,17.05
2022-09-16T12:03:19.957Z,17.02
2022-09-16T12:06:03.706Z,16.93
2022-09-16T12:08:50.014Z,16.86
2022-09-16T12:11:27.282Z,16.79
2022-09-16T12:14:07.396Z,16.66
2022-09-16T12:16:45.116Z,16.49
2022-09-16T12:19:25.378Z,16.28
2022-09-16T12:22:03.176Z,16.06
2022-09-16T12:24:43.695Z,15.85
2022-09-16T12:27:25.400Z,15.67
2022-09-16T12:30:03.241Z,15.54
2022-09-16T12:32:46.285Z,15.44
2022-09-16T12:35:22.256Z,15.34
2022-09-16T12:37:57.639Z,15.31
2022-09-16T12:41:02.448Z,15.26
2022-09-16T12:43:50.922Z,15.24
2022-09-16T12:46:44.425Z,15.26
2022-09-16T12:49:52.861Z,15.28
2022-09-16T12:52:33.847Z,15.28
2022-09-16T12:55:27.789Z,15.31
2022-09-16T12:58:17.417Z,15.43
2022-09-16T13:01:00.270Z,15.53
2022-09-16T13:06:24.281Z,15.60
2022-09-16T13:08:58.169Z,15.62
2022-09-16T13:12:24.119Z,15.62
2022-09-16T13:14:30.171Z,15.65
2022-09-16T13:17:03.601Z,15.69
2022-09-16T13:19:44.562Z,15.67
2022-09-16T13:22:25.605Z,15.69
2022-09-16T13:25:08.849Z,15.74
2022-09-16T13:27:53.626Z,15.81
2022-09-16T13:30:39.615Z,15.88
2022-09-16T13:33:28.990Z,15.92
2022-09-16T13:36:17.039Z,15.88
2022-09-16T13:38:50.896Z,15.95
2022-09-16T13:41:37.972Z,16.03
2022-09-16T13:44:41.625Z,16.02
2022-09-16T13:47:22.489Z,15.98
2022-09-16T13:49:57.774Z,15.92
2022-09-16T13:52:33.472Z,15.88
2022-09-16T13:55:22.294Z,15.80
2022-09-16T13:58:02.847Z,15.72
2022-09-16T14:00:45.633Z,15.67
2022-09-16T14:03:53.239Z,15.60
2022-09-16T14:06:57.870Z,15.55
2022-09-16T14:09:47.242Z,15.55
2022-09-16T14:12:29.114Z,15.54
2022-09-16T14:15:02.209Z,15.53
2022-09-16T14:17:42.352Z,15.58
2022-09-16T14:20:19.146Z,15.68
2022-09-16T14:23:00.830Z,15.88
2022-09-16T14:25:36.281Z,16.08
2022-09-16T14:29:05.447Z,16.20
2022-09-16T14:31:38.394Z,16.25
2022-09-16T14:34:16.316Z,16.23
2022-09-16T14:36:49.629Z,16.24
2022-09-16T14:39:25.308Z,16.24
2022-09-16T14:41:59.562Z,16.18
2022-09-16T14:44:38.510Z,16.17
2022-09-16T14:47:39.675Z,16.15
2022-09-16T14:50:21.022Z,16.07
2022-09-16T14:52:58.955Z,15.93
2022-09-16T14:55:33.653Z,15.90
2022-09-16T14:58:06.252Z,15.89
2022-09-16T15:00:44.418Z,15.87
2022-09-16T15:03:22.904Z,15.83
2022-09-16T15:05:56.962Z,15.76
2022-09-16T15:08:32.929Z,15.75
2022-09-16T15:11:29.796Z,15.76
2022-09-16T15:14:08.802Z,15.70
2022-09-16T15:16:48.112Z,15.68
2022-09-16T15:19:25.003Z,15.67
2022-09-16T15:21:58.159Z,15.68
2022-09-16T15:24:34.012Z,15.67
2022-09-16T15:27:09.966Z,15.62
2022-09-16T15:29:55.489Z,15.58
2022-09-16T15:32:31.939Z,15.54
2022-09-16T15:35:25.078Z,15.52
2022-09-16T15:37:58.512Z,15.51
2022-09-16T15:40:39.957Z,15.49
2022-09-16T15:43:19.884Z,15.50
2022-09-16T15:46:03.023Z,15.48
2022-09-16T15:48:38.065Z,15.48
2022-09-16T15:51:25.730Z,15.49
2022-09-16T15:54:07.668Z,15.49
2022-09-16T15:56:53.581Z,15.46
2022-09-16T15:59:30.932Z,15.42
2022-09-16T16:02:07.892Z,15.40
2022-09-16T16:04:40.284Z,15.34
2022-09-16T16:07:12.854Z,15.30
2022-09-16T16:09:45.864Z,15.30
2022-09-16T16:12:20.162Z,15.29
2022-09-16T16:14:53.265Z,15.28
2022-09-16T16:17:25.615Z,15.27
2022-09-16T16:19:57.972Z,15.25
2022-09-16T16:22:30.162Z,15.20
2022-09-16T16:25:02.350Z,15.12
2022-09-16T16:27:34.594Z,15.02
2022-09-16T16:30:08.555Z,14.99
2022-09-16T16:32:43.539Z,14.92
2022-09-16T16:35:16.822Z,14.82
2022-09-16T16:37:49.496Z,14.79
2022-09-16T16:40:21.737Z,14.75
2022-09-16T16:42:54.154Z,14.75
2022-09-16T16:45:26.488Z,14.76
2022-09-16T16:48:01.729Z,14.74
2022-09-16T16:50:33.921Z,14.72
2022-09-16T16:53:06.337Z,14.72
2022-09-16T16:55:38.552Z,14.71
2022-09-16T16:58:10.700Z,14.68
2022-09-16T17:00:43.350Z,14.66
2022-09-16T17:03:15.528Z,14.61
2022-09-16T17:05:49.635Z,14.60
2022-09-16T17:08:22.118Z,14.60
2022-09-16T17:11:08.184Z,14.57
2022-09-16T17:13:41.124Z,14.54
2022-09-16T17:16:16.102Z,14.53
2022-09-16T17:18:51.834Z,14.48
2022-09-16T17:21:28.233Z,14.37
2022-09-16T17:24:02.291Z,14.27
2022-09-16T17:26:35.089Z,14.18
2022-09-16T17:29:15.489Z,14.10
2022-09-16T17:31:49.163Z,14.08
2022-09-16T17:34:21.505Z,14.04
2022-09-16T17:36:59.702Z,14.02
2022-09-16T17:39:32.837Z,13.93
2022-09-16T17:42:05.362Z,13.88
2022-09-16T17:44:39.449Z,13.76
2022-09-16T17:47:12.047Z,13.67
2022-09-16T17:49:44.280Z,13.67
2022-09-16T17:52:20.530Z,13.64
2022-09-16T17:54:53.552Z,13.59
2022-09-16T17:57:32.425Z,13.56
2022-09-16T18:00:10.741Z,13.49
2022-09-16T18:02:48.996Z,13.48
2022-09-16T18:05:22.628Z,13.47
2022-09-16T18:07:57.963Z,13.46
2022-09-16T18:10:31.903Z,13.43
2022-09-16T18:13:08.150Z,13.41
2022-09-16T18:15:41.043Z,13.36
2022-09-16T18:18:17.597Z,13.33
2022-09-16T18:20:56.443Z,13.31
2022-09-16T18:23:34.397Z,13.24
2022-09-16T18:26:12.014Z,13.18
2022-09-16T18:29:08.506Z,13.16
2022-09-16T18:31:40.560Z,13.17
2022-09-16T18:34:18.966Z,13.16
2022-09-16T18:36:53.255Z,13.14
2022-09-16T18:39:28.071Z,13.13
2022-09-16T18:42:01.126Z,13.12
2022-09-16T18:44:35.448Z,13.08
2022-09-16T18:47:08.759Z,13.09
2022-09-16T18:49:41.075Z,13.10
2022-09-16T18:52:14.351Z,13.04
2022-09-16T18:54:49.312Z,12.97
2022-09-16T18:57:24.062Z,12.96
2022-09-16T19:00:01.835Z,12.96
2022-09-16T19:02:37.881Z,12.95
2022-09-16T19:05:14.151Z,12.90
2022-09-16T19:07:49.782Z,12.87
2022-09-16T19:10:27.202Z,12.86
2022-09-16T19:13:00.127Z,12.83
2022-09-16T19:15:42.208Z,12.83
2022-09-16T19:18:18.670Z,12.81
2022-09-16T19:20:53.657Z,12.78
2022-09-16T19:23:31.920Z,12.69
2022-09-16T19:26:09.138Z,12.66
2022-09-16T19:28:42.605Z,12.65
2022-09-16T19:31:16.105Z,12.66
2022-09-16T19:33:50.319Z,12.68
2022-09-16T19:36:26.970Z,12.69
2022-09-16T19:39:01.280Z,12.67
2022-09-16T19:41:39.110Z,12.69
2022-09-16T19:44:15.298Z,12.67
2022-09-16T19:46:50.984Z,12.66
2022-09-16T19:49:24.458Z,12.66
2022-09-16T19:51:56.827Z,12.65
2022-09-16T19:54:29.212Z,12.64
2022-09-16T19:57:02.636Z,12.60
2022-09-16T19:59:34.855Z,12.59
2022-09-16T20:02:07.788Z,12.59
2022-09-16T20:04:40.533Z,12.57
2022-09-16T20:07:17.068Z,12.57
2022-09-16T20:09:50.372Z,12.54
2022-09-16T20:12:22.806Z,12.49
2022-09-16T20:14:55.052Z,12.44
2022-09-16T20:17:27.197Z,12.36
2022-09-16T20:20:02.280Z,12.34
2022-09-16T20:22:35.123Z,12.34
2022-09-16T20:25:22.428Z,12.35
2022-09-16T20:27:56.969Z,12.34
2022-09-16T20:30:37.064Z,12.31
2022-09-16T20:33:09.522Z,12.29
2022-09-16T20:35:41.610Z,12.27
2022-09-16T20:38:13.898Z,12.22
2022-09-16T20:40:46.556Z,12.19
2022-09-16T20:43:18.904Z,12.16
2022-09-16T20:45:53.773Z,12.11
2022-09-16T20:48:26.180Z,12.04
2022-09-16T20:51:03.106Z,12.00
2022-09-16T20:53:36.346Z,11.98
2022-09-16T20:56:11.781Z,11.96
2022-09-16T20:58:44.209Z,11.93
2022-09-16T21:01:18.118Z,11.88
2022-09-16T21:03:54.302Z,11.84
2022-09-16T21:06:28.761Z,11.75
2022-09-16T21:09:04.305Z,11.72
2022-09-16T21:11:36.666Z,11.70
2022-09-16T21:14:09.468Z,11.70
2022-09-16T21:16:42.452Z,11.64
2022-09-16T21:19:15.234Z,11.65
2022-09-16T21:21:48.611Z,11.63
2022-09-16T21:24:23.505Z,11.61
2022-09-16T21:26:55.823Z,11.59
2022-09-16T21:29:28.123Z,11.56
2022-09-16T21:32:12.560Z,11.54
2022-09-16T21:34:44.689Z,11.50
2022-09-16T21:37:17.209Z,11.46
2022-09-16T21:39:49.579Z,11.45
2022-09-16T21:42:21.830Z,11.43
2022-09-16T21:44:58.098Z,11.40
2022-09-16T21:47:30.368Z,11.36
2022-09-16T21:50:02.616Z,11.32
2022-09-16T21:52:35.118Z,11.31
2022-09-16T21:55:08.297Z,11.29
2022-09-16T21:57:40.367Z,11.28
2022-09-16T22:00:15.703Z,11.23
2022-09-16T22:02:47.915Z,11.19
2022-09-16T22:05:23.088Z,11.17
2022-09-16T22:07:55.388Z,11.14
2022-09-16T22:10:27.742Z,11.14
2022-09-16T22:13:00.043Z,11.06
2022-09-16T22:15:32.550Z,11.02
2022-09-16T22:18:04.900Z,11.01
2022-09-16T22:20:37.048Z,10.99
2022-09-16T22:23:12.129Z,10.98
2022-09-16T22:25:44.325Z,10.99
2022-09-16T22:28:19.032Z,10.98
2022-09-16T22:30:51.077Z,10.92
2022-09-16T22:33:23.247Z,10.88
2022-09-16T22:35:55.478Z,10.87
2022-09-16T22:38:27.804Z,10.88
2022-09-16T22:41:03.195Z,10.87
2022-09-16T22:43:38.769Z,10.86
2022-09-16T22:46:13.225Z,10.85
2022-09-16T22:48:46.354Z,10.82
2022-09-16T22:51:20.278Z,10.80
2022-09-16T22:53:52.831Z,10.79
2022-09-16T22:56:29.446Z,10.79
2022-09-16T22:59:04.333Z,10.75
2022-09-16T23:01:39.290Z,10.71
2022-09-16T23:04:12.579Z,10.68
2022-09-16T23:06:45.044Z,10.66
2022-09-16T23:09:20.005Z,10.65
2022-09-16T23:11:52.195Z,10.63
2022-09-16T23:14:26.369Z,10.59
2022-09-16T23:16:58.932Z,10.55
2022-09-16T23:19:31.104Z,10.54
2022-09-16T23:22:03.180Z,10.53
2022-09-16T23:24:35.494Z,10.52
2022-09-16T23:27:08.338Z,10.47
2022-09-16T23:29:41.512Z,10.43
2022-09-16T23:32:14.156Z,10.42
2022-09-16T23:34:46.560Z,10.41
2022-09-16T23:37:18.779Z,10.36
2022-09-16T23:39:51.282Z,10.34
2022-09-16T23:42:29.724Z,10.32
2022-09-16T23:45:02.005Z,10.33
2022-09-16T23:47:36.367Z,10.32
2022-09-16T23:50:11.792Z,10.34
2022-09-16T23:52:44.074Z,10.32
2022-09-16T23:55:16.608Z,10.30
2022-09-16T23:57:48.710Z,10.30
